createdAt,value
2022-11-05T00:00:38.572Z,19.05
2022-11-05T00:03:25.272Z,19.52
2022-11-05T00:06:12.610Z,19.33
2022-11-05T00:08:59.635Z,18.77
2022-11-05T00:11:46.459Z,19.33
2022-11-05T00:14:32.556Z,19.55
2022-11-05T00:16:59.292Z,18.83
2022-11-05T00:19:26.305Z,19.02
2022-11-05T00:22:12.405Z,19.42
2022-11-05T00:24:57.667Z,18.60
2022-11-05T00:27:24.431Z,18.42
2022-11-05T00:29:53.857Z,18.70
2022-11-05T00:34:48.894Z,19.23
2022-11-05T00:37:15.862Z,19.65
2022-11-05T00:39:42.644Z,18.90
2022-11-05T00:42:28.455Z,19.27
2022-11-05T00:45:01.093Z,19.25
2022-11-05T00:47:46.728Z,18.65
2022-11-05T00:50:13.714Z,19.60
2022-11-05T00:52:55.894Z,19.67
2022-11-05T00:55:26.671Z,18.60
2022-11-05T00:57:56.951Z,18.17
2022-11-05T01:00:26.406Z,17.30
2022-11-05T01:02:58.305Z,17.88
2022-11-05T01:05:32.579Z,18.75
2022-11-05T01:08:00.646Z,18.85
2022-11-05T01:10:33.490Z,18.75
2022-11-05T01:13:04.914Z,18.25
2022-11-05T01:15:43.512Z,18.63
2022-11-05T01:18:11.650Z,18.42
2022-11-05T01:20:39.596Z,18.27
2022-11-05T01:23:12.989Z,18.30
2022-11-05T01:25:44.340Z,18.65
2022-11-05T01:28:12.322Z,18.73
2022-11-05T01:30:39.885Z,18.73
2022-11-05T01:33:07.311Z,18.90
2022-11-05T01:35:34.785Z,18.35
2022-11-05T01:38:02.209Z,18.70
2022-11-05T01:40:29.577Z,18.08
2022-11-05T01:42:57.157Z,18.63
2022-11-05T01:45:26.963Z,18.52
2022-11-05T01:48:30.749Z,18.52
2022-11-05T01:51:18.553Z,18.15
2022-11-05T01:53:57.426Z,17.70
2022-11-05T01:56:33.184Z,18.58
2022-11-05T01:59:15.140Z,18.02
2022-11-05T02:01:45.742Z,17.95
2022-11-05T02:04:18.148Z,18.38
2022-11-05T02:06:46.873Z,17.92
2022-11-05T02:09:30.440Z,18.10
2022-11-05T02:11:58.819Z,18.30
2022-11-05T02:14:25.928Z,17.75
2022-11-05T02:17:18.182Z,18.55
2022-11-05T02:20:15.950Z,17.88
2022-11-05T02:23:09.114Z,17.90
2022-11-05T02:25:53.591Z,17.90
2022-11-05T02:28:41.964Z,19.05
2022-11-05T02:31:17.693Z,18.50
2022-11-05T02:34:19.893Z,18.27
2022-11-05T02:37:31.783Z,18.92
2022-11-05T02:40:17.047Z,18.50
2022-11-05T02:42:52.580Z,18.45
2022-11-05T02:45:34.623Z,18.17
2022-11-05T02:48:33.064Z,19.23
2022-11-05T02:51:16.595Z,19.15
2022-11-05T02:54:19.436Z,19.02
2022-11-05T02:56:50.687Z,19.60
2022-11-05T02:59:18.088Z,20.10
2022-11-05T03:01:47.152Z,19.70
2022-11-05T03:04:17.920Z,19.10
2022-11-05T03:06:56.786Z,20.83
2022-11-05T03:09:41.027Z,19.80
2022-11-05T03:12:10.768Z,19.23
2022-11-05T03:14:49.939Z,20.15
2022-11-05T03:17:35.808Z,18.92
2022-11-05T03:20:15.486Z,18.88
2022-11-05T03:22:51.808Z,19.95
2022-11-05T03:25:24.204Z,19.67
2022-11-05T03:27:56.131Z,19.45
2022-11-05T03:30:25.081Z,19.35
2022-11-05T03:33:00.206Z,18.88
2022-11-05T03:35:31.613Z,19.98
2022-11-05T03:38:03.724Z,18.92
2022-11-05T03:40:35.197Z,19.20
2022-11-05T03:43:06.588Z,19.40
2022-11-05T03:45:40.069Z,19.95
2022-11-05T03:48:10.682Z,19.38
2022-11-05T03:50:53.067Z,19.60
2022-11-05T03:53:28.167Z,19.10
2022-11-05T03:55:59.359Z,19.10
2022-11-05T03:58:27.251Z,19.20
2022-11-05T04:00:54.147Z,19.42
2022-11-05T04:03:20.935Z,21.63
2022-11-05T04:06:07.612Z,19.70
2022-11-05T04:08:53.058Z,20.63
2022-11-05T04:11:38.457Z,21.02
2022-11-05T04:14:05.225Z,20.23
2022-11-05T04:16:50.254Z,20.30
2022-11-05T04:19:36.966Z,20.40
2022-11-05T04:22:22.239Z,19.92
2022-11-05T04:24:49.135Z,20.13
2022-11-05T04:27:15.896Z,20.77
2022-11-05T04:30:01.266Z,20.50
2022-11-05T04:32:28.019Z,20.60
2022-11-05T04:34:54.781Z,19.95
2022-11-05T04:37:21.515Z,19.75
2022-11-05T04:39:48.296Z,20.17
2022-11-05T04:42:15.001Z,20.60
2022-11-05T04:44:41.753Z,20.88
2022-11-05T04:47:08.568Z,19.83
2022-11-05T04:49:35.332Z,20.20
2022-11-05T04:52:02.065Z,20.45
2022-11-05T04:54:28.830Z,21.02
2022-11-05T04:56:55.634Z,20.60
2022-11-05T04:59:22.485Z,21.15
2022-11-05T05:01:53.195Z,20.95
2022-11-05T05:04:20.774Z,21.02
2022-11-05T05:06:47.549Z,20.85
2022-11-05T05:09:14.367Z,21.30
2022-11-05T05:11:41.205Z,20.00
2022-11-05T05:14:08.730Z,20.08
2022-11-05T05:16:35.536Z,20.35
2022-11-05T05:19:02.333Z,21.60
2022-11-05T05:21:41.711Z,20.63
2022-11-05T05:24:11.570Z,20.67
2022-11-05T05:26:41.553Z,21.00
2022-11-05T05:29:09.137Z,21.92
2022-11-05T05:31:36.468Z,20.63
2022-11-05T05:34:03.892Z,21.77
2022-11-05T05:36:31.073Z,20.83
2022-11-05T05:38:58.177Z,22.77
2022-11-05T05:41:25.019Z,20.88
2022-11-05T05:43:51.795Z,21.58
2022-11-05T05:46:19.687Z,21.08
2022-11-05T05:48:52.761Z,21.20
2022-11-05T05:51:20.064Z,20.55
2022-11-05T05:53:46.847Z,20.90
2022-11-05T05:56:19.520Z,21.15
2022-11-05T05:58:47.245Z,22.15
2022-11-05T06:01:19.336Z,21.63
2022-11-05T06:03:47.932Z,21.85
2022-11-05T06:06:16.259Z,22.25
2022-11-05T06:08:43.081Z,22.27
2022-11-05T06:11:09.970Z,20.92
2022-11-05T06:13:37.549Z,20.77
2022-11-05T06:16:06.793Z,20.88
2022-11-05T06:18:34.543Z,20.33
2022-11-05T06:21:06.447Z,21.27
2022-11-05T06:23:34.168Z,21.15
2022-11-05T06:26:08.916Z,21.48
2022-11-05T06:28:35.761Z,22.08
2022-11-05T06:31:02.893Z,21.92
2022-11-05T06:33:29.916Z,23.05
2022-11-05T06:36:00.855Z,23.63
2022-11-05T06:38:29.391Z,22.70
2022-11-05T06:40:59.445Z,22.75
2022-11-05T06:43:27.077Z,21.13
2022-11-05T06:45:54.218Z,21.65
2022-11-05T06:48:21.125Z,23.73
2022-11-05T06:50:47.901Z,23.65
2022-11-05T06:53:15.082Z,23.45
2022-11-05T06:55:41.859Z,23.92
2022-11-05T06:58:08.611Z,25.35
2022-11-05T07:00:35.434Z,23.50
2022-11-05T07:03:10.408Z,24.05
2022-11-05T07:05:40.409Z,22.40
2022-11-05T07:08:07.207Z,22.55
2022-11-05T07:10:33.976Z,22.15
2022-11-05T07:13:05.156Z,23.27
2022-11-05T07:15:34.427Z,22.52
2022-11-05T07:18:01.937Z,22.73
2022-11-05T07:20:33.497Z,22.33
2022-11-05T07:23:06.040Z,23.17
2022-11-05T07:25:34.107Z,23.55
2022-11-05T07:28:01.757Z,24.75
2022-11-05T07:30:29.189Z,23.90
2022-11-05T07:32:56.082Z,24.33
2022-11-05T07:35:23.263Z,23.83
2022-11-05T07:37:54.112Z,23.60
2022-11-05T07:40:22.810Z,25.27
2022-11-05T07:42:52.550Z,23.20
2022-11-05T07:45:20.174Z,22.52
2022-11-05T07:47:52.031Z,23.08
2022-11-05T07:50:21.177Z,23.65
2022-11-05T07:52:48.769Z,22.75
2022-11-05T07:55:16.761Z,23.45
2022-11-05T07:57:48.627Z,23.25
2022-11-05T08:00:18.068Z,24.55
2022-11-05T08:02:45.000Z,23.92
2022-11-05T08:05:11.959Z,25.55
2022-11-05T08:07:38.723Z,24.75
2022-11-05T08:10:05.846Z,24.67
2022-11-05T08:12:32.802Z,24.67
2022-11-05T08:14:59.586Z,24.70
2022-11-05T08:17:26.406Z,23.85
2022-11-05T08:19:53.174Z,25.10
2022-11-05T08:22:19.995Z,23.58
2022-11-05T08:24:46.769Z,25.80
2022-11-05T08:27:13.803Z,25.27
2022-11-05T08:29:40.519Z,24.20
2022-11-05T08:32:07.324Z,24.45
2022-11-05T08:34:34.083Z,24.13
2022-11-05T08:37:01.951Z,29.20
2022-11-05T08:39:28.705Z,27.85
2022-11-05T08:41:55.550Z,26.92
2022-11-05T08:44:22.380Z,25.23
2022-11-05T08:46:49.365Z,23.70
2022-11-05T08:49:16.103Z,26.88
2022-11-05T08:51:44.531Z,26.27
2022-11-05T08:54:11.437Z,26.67
2022-11-05T08:56:38.453Z,25.83
2022-11-05T08:59:05.257Z,26.45
2022-11-05T09:01:33.738Z,28.35
2022-11-05T09:04:00.655Z,28.80
2022-11-05T09:06:27.939Z,25.42
2022-11-05T09:08:55.031Z,25.13
2022-11-05T09:11:21.891Z,22.45
2022-11-05T09:13:48.753Z,24.00
2022-11-05T09:16:21.321Z,23.25
2022-11-05T09:18:49.413Z,22.60
2022-11-05T09:21:17.591Z,24.27
2022-11-05T09:23:47.663Z,23.90
2022-11-05T09:26:14.904Z,25.10
2022-11-05T09:28:43.370Z,25.27
2022-11-05T09:31:11.376Z,23.67
2022-11-05T09:33:40.462Z,25.48
2022-11-05T09:36:08.178Z,23.67
2022-11-05T09:38:35.820Z,23.83
2022-11-05T09:41:11.962Z,24.52
2022-11-05T09:43:43.964Z,24.40
2022-11-05T09:46:46.091Z,24.08
2022-11-05T09:49:25.348Z,22.45
2022-11-05T09:51:58.313Z,25.13
2022-11-05T09:54:34.374Z,24.50
2022-11-05T09:57:03.419Z,23.60
2022-11-05T09:59:58.380Z,25.10
2022-11-05T10:02:33.244Z,24.98
2022-11-05T10:05:09.712Z,23.75
2022-11-05T10:07:45.302Z,24.35
2022-11-05T10:10:54.945Z,22.60
2022-11-05T10:13:25.821Z,20.67
2022-11-05T10:16:02.402Z,20.55
2022-11-05T10:18:34.823Z,22.00
2022-11-05T10:21:01.844Z,22.75
2022-11-05T10:23:29.620Z,22.55
2022-11-05T10:26:03.611Z,21.92
2022-11-05T10:28:33.009Z,21.67
2022-11-05T10:31:04.218Z,23.85
2022-11-05T10:33:45.252Z,21.60
2022-11-05T10:36:22.555Z,21.23
2022-11-05T10:38:50.269Z,21.02
2022-11-05T10:41:47.697Z,21.35
2022-11-05T10:44:18.978Z,19.55
2022-11-05T10:47:30.853Z,19.48
2022-11-05T10:50:02.626Z,19.80
2022-11-05T10:52:38.360Z,19.70
2022-11-05T10:55:31.477Z,19.40
2022-11-05T10:58:13.452Z,18.80
2022-11-05T11:00:40.704Z,18.67
2022-11-05T11:03:32.030Z,19.45
2022-11-05T11:06:07.271Z,19.58
2022-11-05T11:08:42.256Z,19.50
2022-11-05T11:11:25.911Z,17.80
2022-11-05T11:14:17.261Z,18.10
2022-11-05T11:16:51.318Z,18.23
2022-11-05T11:19:21.345Z,17.73
2022-11-05T11:22:09.604Z,17.30
2022-11-05T11:24:48.430Z,16.52
2022-11-05T11:27:27.277Z,16.58
2022-11-05T11:30:18.187Z,17.35
2022-11-05T11:32:46.456Z,16.98
2022-11-05T11:35:25.135Z,17.98
2022-11-05T11:37:54.932Z,17.73
2022-11-05T11:40:33.136Z,17.83
2022-11-05T11:43:06.278Z,22.35
2022-11-05T11:45:38.207Z,19.75
2022-11-05T11:48:07.805Z,19.98
2022-11-05T11:50:36.382Z,21.45
2022-11-05T11:53:21.430Z,19.50
2022-11-05T11:56:15.724Z,21.75
2022-11-05T11:58:43.844Z,25.02
2022-11-05T12:01:35.444Z,24.88
2022-11-05T12:04:25.978Z,19.63
2022-11-05T12:07:10.801Z,18.38
2022-11-05T12:09:55.990Z,16.55
2022-11-05T12:12:35.647Z,19.60
2022-11-05T12:15:24.617Z,18.60
2022-11-05T12:18:05.313Z,18.13
2022-11-05T12:20:45.445Z,41.22
2022-11-05T12:23:30.416Z,38.85
2022-11-05T12:26:05.624Z,39.33
2022-11-05T12:29:18.313Z,31.35
2022-11-05T12:32:06.779Z,22.15
2022-11-05T12:34:52.067Z,18.63
2022-11-05T12:37:50.478Z,16.23
2022-11-05T12:40:23.134Z,16.38
2022-11-05T12:43:11.920Z,16.38
2022-11-05T12:46:20.252Z,18.40
2022-11-05T12:49:31.617Z,17.13
2022-11-05T12:54:58.543Z,16.70
2022-11-05T12:57:29.246Z,16.75
2022-11-05T13:00:18.845Z,20.80
2022-11-05T13:02:56.403Z,17.73
2022-11-05T13:05:38.127Z,59.78
2022-11-05T13:08:14.646Z,48.28
2022-11-05T13:10:46.331Z,27.70
2022-11-05T13:13:30.867Z,25.00
2022-11-05T13:16:05.317Z,17.58
2022-11-05T13:18:44.722Z,16.75
2022-11-05T13:21:11.938Z,21.88
2022-11-05T13:23:46.814Z,16.98
2022-11-05T13:26:51.136Z,15.25
2022-11-05T13:29:21.114Z,15.93
2022-11-05T13:31:57.974Z,17.23
2022-11-05T13:34:24.781Z,15.00
2022-11-05T13:37:23.225Z,23.92
2022-11-05T13:40:00.209Z,15.60
2022-11-05T13:42:49.153Z,15.38
2022-11-05T13:45:34.392Z,16.25
2022-11-05T13:48:25.170Z,15.20
2022-11-05T13:51:49.487Z,15.82
2022-11-05T13:54:53.224Z,16.23
2022-11-05T13:57:35.173Z,15.95
2022-11-05T14:00:23.306Z,15.48
2022-11-05T14:03:16.014Z,16.17
2022-11-05T14:05:43.670Z,15.65
2022-11-05T14:08:16.513Z,15.57
2022-11-05T14:10:46.037Z,15.98
2022-11-05T14:13:50.833Z,16.00
2022-11-05T14:16:17.506Z,16.95
2022-11-05T14:19:04.486Z,17.10
2022-11-05T14:21:55.278Z,17.17
2022-11-05T14:24:22.040Z,18.30
2022-11-05T14:27:00.752Z,16.70
2022-11-05T14:29:43.861Z,16.98
2022-11-05T14:32:19.850Z,16.65
2022-11-05T14:35:04.251Z,16.88
2022-11-05T14:37:37.207Z,15.80
2022-11-05T14:40:22.120Z,15.90
2022-11-05T14:42:55.311Z,16.42
2022-11-05T14:45:34.551Z,16.60
2022-11-05T14:48:28.134Z,16.08
2022-11-05T14:50:55.260Z,15.65
2022-11-05T14:53:38.127Z,15.95
2022-11-05T14:56:09.315Z,16.48
2022-11-05T14:58:38.697Z,17.05
2022-11-05T15:01:14.708Z,16.10
2022-11-05T15:03:46.293Z,15.85
2022-11-05T15:06:33.538Z,15.35
2022-11-05T15:09:26.907Z,14.45
2022-11-05T15:11:56.670Z,14.80
2022-11-05T15:15:01.989Z,15.10
2022-11-05T15:17:39.038Z,14.68
2022-11-05T15:20:14.510Z,14.82
2022-11-05T15:22:45.086Z,14.52
2022-11-05T15:25:20.779Z,15.00
2022-11-05T15:27:53.654Z,14.35
2022-11-05T15:30:23.711Z,14.52
2022-11-05T15:32:51.725Z,14.45
2022-11-05T15:35:22.375Z,14.32
2022-11-05T15:37:55.941Z,13.80
2022-11-05T15:40:28.552Z,14.55
2022-11-05T15:43:17.385Z,15.15
2022-11-05T15:45:57.135Z,14.38
2022-11-05T15:48:23.883Z,14.73
2022-11-05T15:50:50.752Z,15.07
2022-11-05T15:53:47.602Z,14.70
2022-11-05T15:56:22.092Z,14.18
2022-11-05T15:59:28.258Z,14.05
2022-11-05T16:02:05.938Z,14.85
2022-11-05T16:04:35.091Z,15.65
2022-11-05T16:07:09.141Z,15.63
2022-11-05T16:09:38.601Z,16.00
2022-11-05T16:12:14.412Z,16.15
2022-11-05T16:14:42.012Z,15.45
2022-11-05T16:17:23.289Z,15.63
2022-11-05T16:19:51.098Z,16.15
2022-11-05T16:22:18.537Z,16.00
2022-11-05T16:24:46.317Z,16.40
2022-11-05T16:27:21.196Z,15.85
2022-11-05T16:29:56.474Z,15.48
2022-11-05T16:32:30.626Z,16.50
2022-11-05T16:35:04.371Z,16.77
2022-11-05T16:37:40.092Z,17.35
2022-11-05T16:40:17.853Z,16.70
2022-11-05T16:42:48.581Z,17.15
2022-11-05T16:45:17.136Z,16.58
2022-11-05T16:47:45.024Z,16.88
2022-11-05T16:50:25.719Z,17.70
2022-11-05T16:52:53.011Z,16.98
2022-11-05T16:55:20.348Z,15.93
2022-11-05T16:57:52.481Z,16.40
2022-11-05T17:00:21.234Z,17.33
2022-11-05T17:02:48.402Z,17.55
2022-11-05T17:05:25.797Z,17.83
2022-11-05T17:07:53.406Z,17.88
2022-11-05T17:10:22.135Z,17.98
2022-11-05T17:12:49.265Z,18.55
2022-11-05T17:15:27.095Z,18.23
2022-11-05T17:17:54.814Z,18.98
2022-11-05T17:20:39.538Z,18.55
2022-11-05T17:23:18.448Z,17.98
2022-11-05T17:25:53.217Z,19.27
2022-11-05T17:28:20.661Z,19.17
2022-11-05T17:30:54.351Z,18.67
2022-11-05T17:33:22.880Z,19.73
2022-11-05T17:35:50.919Z,19.35
2022-11-05T17:38:18.108Z,20.00
2022-11-05T17:40:44.861Z,19.48
2022-11-05T17:43:11.936Z,19.70
2022-11-05T17:45:47.053Z,19.48
2022-11-05T17:48:15.168Z,19.65
2022-11-05T17:50:47.526Z,19.75
2022-11-05T17:53:16.508Z,20.33
2022-11-05T17:55:45.165Z,20.80
2022-11-05T17:58:12.606Z,20.17
2022-11-05T18:00:40.732Z,20.00
2022-11-05T18:03:07.728Z,19.90
2022-11-05T18:05:34.655Z,20.52
2022-11-05T18:08:01.829Z,20.65
2022-11-05T18:10:28.657Z,20.13
2022-11-05T18:12:55.620Z,20.77
2022-11-05T18:15:22.449Z,21.08
2022-11-05T18:17:49.187Z,21.70
2022-11-05T18:20:19.248Z,21.73
2022-11-05T18:22:49.231Z,20.23
2022-11-05T18:25:16.902Z,20.88
2022-11-05T18:27:43.633Z,20.85
2022-11-05T18:30:14.069Z,21.00
2022-11-05T18:32:42.590Z,19.98
2022-11-05T18:35:09.832Z,21.80
2022-11-05T18:37:39.742Z,20.30
2022-11-05T18:40:07.626Z,20.08
2022-11-05T18:42:34.437Z,20.67
2022-11-05T18:45:01.231Z,21.05
2022-11-05T18:47:27.995Z,20.83
2022-11-05T18:49:54.813Z,21.23
2022-11-05T18:52:21.489Z,20.83
2022-11-05T18:54:48.329Z,19.60
2022-11-05T18:57:15.062Z,20.15
2022-11-05T18:59:46.695Z,19.63
2022-11-05T19:02:14.738Z,21.27
2022-11-05T19:04:55.095Z,21.98
2022-11-05T19:07:28.702Z,21.40
2022-11-05T19:09:55.549Z,21.23
2022-11-05T19:12:22.297Z,20.58
2022-11-05T19:14:49.054Z,21.10
2022-11-05T19:17:15.833Z,18.88
2022-11-05T19:19:42.587Z,20.50
2022-11-05T19:22:10.328Z,20.83
2022-11-05T19:24:37.091Z,20.33
2022-11-05T19:27:03.854Z,20.20
2022-11-05T19:29:30.651Z,21.17
2022-11-05T19:31:57.380Z,21.00
2022-11-05T19:34:24.214Z,20.13
2022-11-05T19:36:50.919Z,18.98
2022-11-05T19:39:17.736Z,18.77
2022-11-05T19:41:44.428Z,18.00
2022-11-05T19:44:11.324Z,17.38
2022-11-05T19:46:38.542Z,18.20
2022-11-05T19:49:05.282Z,18.05
2022-11-05T19:51:32.914Z,18.40
2022-11-05T19:54:02.393Z,17.65
2022-11-05T19:56:32.004Z,19.25
2022-11-05T19:58:59.844Z,18.55
2022-11-05T20:01:28.456Z,19.83
2022-11-05T20:03:57.073Z,18.77
2022-11-05T20:06:32.982Z,19.25
2022-11-05T20:11:51.246Z,19.45
2022-11-05T20:14:18.031Z,21.15
2022-11-05T20:16:45.757Z,19.60
2022-11-05T20:19:20.805Z,18.58
2022-11-05T20:21:48.161Z,20.15
2022-11-05T20:24:23.283Z,19.02
2022-11-05T20:26:50.298Z,18.27
2022-11-05T20:29:17.213Z,18.50
2022-11-05T20:31:43.957Z,17.90
2022-11-05T20:34:10.780Z,18.38
2022-11-05T20:36:39.469Z,17.80
2022-11-05T20:39:06.279Z,18.35
2022-11-05T20:41:33.297Z,18.60
2022-11-05T20:44:00.166Z,18.63
2022-11-05T20:46:27.007Z,18.88
2022-11-05T20:48:54.026Z,17.98
2022-11-05T20:51:22.508Z,18.75
2022-11-05T20:53:49.619Z,18.83
2022-11-05T20:56:25.288Z,18.40
2022-11-05T20:58:52.774Z,18.15
2022-11-05T21:01:20.481Z,18.92
2022-11-05T21:03:47.879Z,18.50
2022-11-05T21:06:15.041Z,18.73
2022-11-05T21:08:41.779Z,19.23
2022-11-05T21:11:09.025Z,18.83
2022-11-05T21:13:36.022Z,17.88
2022-11-05T21:16:06.094Z,18.30
2022-11-05T21:18:35.357Z,18.30
2022-11-05T21:21:08.325Z,17.27
2022-11-05T21:23:35.881Z,17.83
2022-11-05T21:26:06.603Z,18.55
2022-11-05T21:28:34.141Z,17.70
2022-11-05T21:31:03.406Z,18.08
2022-11-05T21:33:30.945Z,18.25
2022-11-05T21:35:58.002Z,18.67
2022-11-05T21:38:25.424Z,19.38
2022-11-05T21:40:52.738Z,19.23
2022-11-05T21:43:19.456Z,18.75
2022-11-05T21:45:46.306Z,18.50
2022-11-05T21:48:15.289Z,18.58
2022-11-05T21:51:01.498Z,18.95
2022-11-05T21:53:47.208Z,19.00
2022-11-05T21:56:41.872Z,19.02
2022-11-05T21:59:30.633Z,19.20
2022-11-05T22:02:01.671Z,19.00
2022-11-05T22:04:37.262Z,19.17
2022-11-05T22:07:04.879Z,19.95
2022-11-05T22:09:31.953Z,20.33
2022-11-05T22:11:59.480Z,19.67
2022-11-05T22:14:27.347Z,19.20
2022-11-05T22:16:54.359Z,19.42
2022-11-05T22:19:21.912Z,19.75
2022-11-05T22:21:49.006Z,19.77
2022-11-05T22:24:16.148Z,19.00
2022-11-05T22:26:43.454Z,19.52
2022-11-05T22:29:10.978Z,19.58
2022-11-05T22:31:37.823Z,19.60
2022-11-05T22:34:05.879Z,19.48
2022-11-05T22:36:34.139Z,19.70
2022-11-05T22:39:01.552Z,19.75
2022-11-05T22:41:28.359Z,19.25
2022-11-05T22:43:55.885Z,19.15
2022-11-05T22:46:24.971Z,20.05
2022-11-05T22:48:53.072Z,20.65
2022-11-05T22:51:23.165Z,20.65
2022-11-05T22:53:50.390Z,21.02
2022-11-05T22:56:20.850Z,21.02
2022-11-05T22:58:48.666Z,20.30
2022-11-05T23:01:16.300Z,20.17
2022-11-05T23:03:45.262Z,20.50
2022-11-05T23:06:42.290Z,19.25
2022-11-05T23:09:37.102Z,19.30
2022-11-05T23:12:06.414Z,18.48
2022-11-05T23:14:34.689Z,19.52
2022-11-05T23:17:19.911Z,18.52
2022-11-05T23:20:05.471Z,18.35
2022-11-05T23:22:51.041Z,18.60
2022-11-05T23:25:20.812Z,18.42
2022-11-05T23:27:50.052Z,19.63
2022-11-05T23:30:20.537Z,19.40
2022-11-05T23:32:48.113Z,19.35
2022-11-05T23:35:15.214Z,18.73
2022-11-05T23:38:00.663Z,19.15
2022-11-05T23:40:30.525Z,18.77
2022-11-05T23:43:16.083Z,18.98
2022-11-05T23:45:59.228Z,19.02
2022-11-05T23:48:37.230Z,19.60
2022-11-05T23:51:09.321Z,20.88
2022-11-05T23:53:40.062Z,20.45
2022-11-05T23:56:14.641Z,20.05
2022-11-05T23:58:42.449Z,20.52
